sensor_id;sensor_type;location;lat;lon;timestamp;temperature;humidity
65707;SHT31;52423;43.512;5.220;2023-05-01T00:00:59;15.11;67.64
65707;SHT31;52423;43.512;5.220;2023-05-01T00:03:25;15.21;67.51
65707;SHT31;52423;43.512;5.220;2023-05-01T00:05:51;15.39;67.11
65707;SHT31;52423;43.512;5.220;2023-05-01T00:08:23;15.41;67.08
65707;SHT31;52423;43.512;5.220;2023-05-01T00:10:48;15.48;67.07
65707;SHT31;52423;43.512;5.220;2023-05-01T00:13:13;15.52;67.18
65707;SHT31;52423;43.512;5.220;2023-05-01T00:15:40;15.67;67.09
65707;SHT31;52423;43.512;5.220;2023-05-01T00:18:06;15.67;66.94
65707;SHT31;52423;43.512;5.220;2023-05-01T00:20:31;15.89;66.78
65707;SHT31;52423;43.512;5.220;2023-05-01T00:22:56;15.97;66.47
65707;SHT31;52423;43.512;5.220;2023-05-01T00:25:22;15.99;66.84
65707;SHT31;52423;43.512;5.220;2023-05-01T00:27:47;16.03;66.71
65707;SHT31;52423;43.512;5.220;2023-05-01T00:30:13;16.03;66.84
65707;SHT31;52423;43.512;5.220;2023-05-01T00:32:38;16.13;66.71
65707;SHT31;52423;43.512;5.220;2023-05-01T00:35:04;16.10;66.64
65707;SHT31;52423;43.512;5.220;2023-05-01T00:37:29;16.21;66.75
65707;SHT31;52423;43.512;5.220;2023-05-01T00:39:55;16.17;66.65
65707;SHT31;52423;43.512;5.220;2023-05-01T00:42:20;16.23;66.63
65707;SHT31;52423;43.512;5.220;2023-05-01T00:44:46;16.20;66.84
65707;SHT31;52423;43.512;5.220;2023-05-01T00:47:11;16.20;66.87
65707;SHT31;52423;43.512;5.220;2023-05-01T00:49:37;16.21;66.99
65707;SHT31;52423;43.512;5.220;2023-05-01T00:52:02;16.20;67.01
65707;SHT31;52423;43.512;5.220;2023-05-01T00:54:27;16.20;67.19
65707;SHT31;52423;43.512;5.220;2023-05-01T00:56:53;16.20;67.25
65707;SHT31;52423;43.512;5.220;2023-05-01T00:59:20;16.14;67.61
65707;SHT31;52423;43.512;5.220;2023-05-01T01:01:45;16.10;67.86
65707;SHT31;52423;43.512;5.220;2023-05-01T01:04:11;16.13;67.82
65707;SHT31;52423;43.512;5.220;2023-05-01T01:14:39;16.14;68.01
65707;SHT31;52423;43.512;5.220;2023-05-01T01:20:45;16.07;68.46
65707;SHT31;52423;43.512;5.220;2023-05-01T01:26:22;16.13;68.44
65707;SHT31;52423;43.512;5.220;2023-05-01T01:34:53;16.00;69.45
65707;SHT31;52423;43.512;5.220;2023-05-01T01:37:20;15.97;69.56
65707;SHT31;52423;43.512;5.220;2023-05-01T01:40:06;16.00;69.50
65707;SHT31;52423;43.512;5.220;2023-05-01T01:42:36;16.00;69.41
65707;SHT31;52423;43.512;5.220;2023-05-01T01:45:07;16.03;69.34
65707;SHT31;52423;43.512;5.220;2023-05-01T01:47:39;16.06;69.27
65707;SHT31;52423;43.512;5.220;2023-05-01T01:50:06;15.99;69.57
65707;SHT31;52423;43.512;5.220;2023-05-01T01:52:34;16.04;69.36
65707;SHT31;52423;43.512;5.220;2023-05-01T01:55:04;15.97;69.56
65707;SHT31;52423;43.512;5.220;2023-05-01T01:57:33;15.94;69.62
65707;SHT31;52423;43.512;5.220;2023-05-01T02:00:00;15.90;69.70
65707;SHT31;52423;43.512;5.220;2023-05-01T02:02:26;15.87;69.84
65707;SHT31;52423;43.512;5.220;2023-05-01T02:04:53;15.87;69.84
65707;SHT31;52423;43.512;5.220;2023-05-01T02:07:21;15.90;69.74
65707;SHT31;52423;43.512;5.220;2023-05-01T02:09:48;15.83;70.04
65707;SHT31;52423;43.512;5.220;2023-05-01T02:12:15;15.81;69.96
65707;SHT31;52423;43.512;5.220;2023-05-01T02:14:41;15.69;70.37
65707;SHT31;52423;43.512;5.220;2023-05-01T02:17:09;15.69;70.46
65707;SHT31;52423;43.512;5.220;2023-05-01T02:19:36;15.65;70.47
65707;SHT31;52423;43.512;5.220;2023-05-01T02:22:04;15.62;70.64
65707;SHT31;52423;43.512;5.220;2023-05-01T02:24:31;15.55;70.76
65707;SHT31;52423;43.512;5.220;2023-05-01T02:27:00;15.51;70.84
65707;SHT31;52423;43.512;5.220;2023-05-01T02:29:28;15.45;71.25
65707;SHT31;52423;43.512;5.220;2023-05-01T02:31:53;15.46;71.16
65707;SHT31;52423;43.512;5.220;2023-05-01T02:34:19;15.42;71.38
65707;SHT31;52423;43.512;5.220;2023-05-01T02:36:44;15.46;71.08
65707;SHT31;52423;43.512;5.220;2023-05-01T02:39:10;15.48;71.10
65707;SHT31;52423;43.512;5.220;2023-05-01T02:41:37;15.45;71.44
65707;SHT31;52423;43.512;5.220;2023-05-01T02:44:04;15.30;71.72
65707;SHT31;52423;43.512;5.220;2023-05-01T02:46:34;15.27;71.84
65707;SHT31;52423;43.512;5.220;2023-05-01T02:49:02;15.18;72.17
65707;SHT31;52423;43.512;5.220;2023-05-01T02:51:28;15.20;72.10
65707;SHT31;52423;43.512;5.220;2023-05-01T02:53:55;15.15;72.45
65707;SHT31;52423;43.512;5.220;2023-05-01T02:56:21;15.17;72.25
65707;SHT31;52423;43.512;5.220;2023-05-01T02:58:47;15.14;72.21
65707;SHT31;52423;43.512;5.220;2023-05-01T03:01:15;15.07;72.46
65707;SHT31;52423;43.512;5.220;2023-05-01T03:03:41;15.08;72.38
65707;SHT31;52423;43.512;5.220;2023-05-01T03:06:06;15.10;72.41
65707;SHT31;52423;43.512;5.220;2023-05-01T03:08:32;15.14;72.10
65707;SHT31;52423;43.512;5.220;2023-05-01T03:10:57;15.10;72.32
65707;SHT31;52423;43.512;5.220;2023-05-01T03:13:23;15.07;72.69
65707;SHT31;52423;43.512;5.220;2023-05-01T03:15:48;15.05;72.82
65707;SHT31;52423;43.512;5.220;2023-05-01T03:18:13;15.05;72.55
65707;SHT31;52423;43.512;5.220;2023-05-01T03:20:39;15.00;72.77
65707;SHT31;52423;43.512;5.220;2023-05-01T03:23:04;14.91;72.96
65707;SHT31;52423;43.512;5.220;2023-05-01T03:25:30;14.94;72.72
65707;SHT31;52423;43.512;5.220;2023-05-01T03:27:56;14.93;72.98
65707;SHT31;52423;43.512;5.220;2023-05-01T03:30:22;14.91;72.98
65707;SHT31;52423;43.512;5.220;2023-05-01T03:32:47;14.84;73.09
65707;SHT31;52423;43.512;5.220;2023-05-01T03:35:12;14.79;73.32
65707;SHT31;52423;43.512;5.220;2023-05-01T03:37:38;14.81;72.93
65707;SHT31;52423;43.512;5.220;2023-05-01T03:40:03;14.85;73.07
65707;SHT31;52423;43.512;5.220;2023-05-01T03:42:29;14.85;73.17
65707;SHT31;52423;43.512;5.220;2023-05-01T03:44:54;14.91;72.98
65707;SHT31;52423;43.512;5.220;2023-05-01T03:47:20;14.95;72.94
65707;SHT31;52423;43.512;5.220;2023-05-01T03:49:45;14.95;72.97
65707;SHT31;52423;43.512;5.220;2023-05-01T03:52:10;14.84;72.86
65707;SHT31;52423;43.512;5.220;2023-05-01T03:54:37;14.83;73.04
65707;SHT31;52423;43.512;5.220;2023-05-01T03:57:03;14.84;73.17
65707;SHT31;52423;43.512;5.220;2023-05-01T03:59:29;14.72;73.81
65707;SHT31;52423;43.512;5.220;2023-05-01T04:01:54;14.80;73.29
65707;SHT31;52423;43.512;5.220;2023-05-01T04:04:19;14.73;73.33
65707;SHT31;52423;43.512;5.220;2023-05-01T04:06:45;14.79;73.24
65707;SHT31;52423;43.512;5.220;2023-05-01T04:09:12;14.70;73.55
65707;SHT31;52423;43.512;5.220;2023-05-01T04:11:38;14.72;73.51
65707;SHT31;52423;43.512;5.220;2023-05-01T04:14:03;14.76;73.12
65707;SHT31;52423;43.512;5.220;2023-05-01T04:16:29;14.56;73.59
65707;SHT31;52423;43.512;5.220;2023-05-01T04:18:54;14.47;73.76
65707;SHT31;52423;43.512;5.220;2023-05-01T04:21:20;14.36;73.87
65707;SHT31;52423;43.512;5.220;2023-05-01T04:23:45;14.39;74.27
65707;SHT31;52423;43.512;5.220;2023-05-01T04:26:11;14.46;74.08
65707;SHT31;52423;43.512;5.220;2023-05-01T04:28:36;14.49;74.31
65707;SHT31;52423;43.512;5.220;2023-05-01T04:31:02;14.39;74.01
65707;SHT31;52423;43.512;5.220;2023-05-01T04:33:28;14.40;74.16
65707;SHT31;52423;43.512;5.220;2023-05-01T04:35:53;14.32;74.39
65707;SHT31;52423;43.512;5.220;2023-05-01T04:38:18;14.30;74.25
65707;SHT31;52423;43.512;5.220;2023-05-01T04:40:44;14.33;74.20
65707;SHT31;52423;43.512;5.220;2023-05-01T04:43:09;14.26;74.14
65707;SHT31;52423;43.512;5.220;2023-05-01T04:45:37;14.21;74.67
65707;SHT31;52423;43.512;5.220;2023-05-01T04:48:02;14.18;74.58
65707;SHT31;52423;43.512;5.220;2023-05-01T04:50:28;14.36;74.22
65707;SHT31;52423;43.512;5.220;2023-05-01T04:52:53;14.46;73.99
65707;SHT31;52423;43.512;5.220;2023-05-01T04:55:18;14.55;73.42
65707;SHT31;52423;43.512;5.220;2023-05-01T04:57:44;14.47;73.42
65707;SHT31;52423;43.512;5.220;2023-05-01T05:00:10;14.43;73.71
65707;SHT31;52423;43.512;5.220;2023-05-01T05:02:36;14.37;74.00
65707;SHT31;52423;43.512;5.220;2023-05-01T05:05:01;14.02;74.91
65707;SHT31;52423;43.512;5.220;2023-05-01T05:07:26;14.15;74.63
65707;SHT31;52423;43.512;5.220;2023-05-01T05:09:52;14.16;74.50
65707;SHT31;52423;43.512;5.220;2023-05-01T05:12:17;14.15;74.98
65707;SHT31;52423;43.512;5.220;2023-05-01T05:14:42;14.25;74.57
65707;SHT31;52423;43.512;5.220;2023-05-01T05:17:08;14.30;73.93
65707;SHT31;52423;43.512;5.220;2023-05-01T05:19:34;14.23;74.45
65707;SHT31;52423;43.512;5.220;2023-05-01T05:22:02;14.32;74.23
65707;SHT31;52423;43.512;5.220;2023-05-01T05:24:28;14.29;74.60
65707;SHT31;52423;43.512;5.220;2023-05-01T05:26:53;14.28;74.44
65707;SHT31;52423;43.512;5.220;2023-05-01T05:29:19;14.29;74.20
65707;SHT31;52423;43.512;5.220;2023-05-01T05:31:44;14.37;73.98
65707;SHT31;52423;43.512;5.220;2023-05-01T05:34:10;14.43;73.82
65707;SHT31;52423;43.512;5.220;2023-05-01T05:36:35;14.53;73.65
65707;SHT31;52423;43.512;5.220;2023-05-01T05:39:01;14.50;73.85
65707;SHT31;52423;43.512;5.220;2023-05-01T05:41:27;14.46;73.54
65707;SHT31;52423;43.512;5.220;2023-05-01T05:43:52;14.46;73.39
65707;SHT31;52423;43.512;5.220;2023-05-01T05:46:18;14.50;73.27
65707;SHT31;52423;43.512;5.220;2023-05-01T05:48:44;14.32;74.11
65707;SHT31;52423;43.512;5.220;2023-05-01T05:51:09;14.42;73.98
65707;SHT31;52423;43.512;5.220;2023-05-01T05:53:34;14.43;73.38
65707;SHT31;52423;43.512;5.220;2023-05-01T05:56:00;14.46;73.63
65707;SHT31;52423;43.512;5.220;2023-05-01T05:58:26;14.42;74.00
65707;SHT31;52423;43.512;5.220;2023-05-01T06:00:51;14.32;74.44
65707;SHT31;52423;43.512;5.220;2023-05-01T06:03:20;14.46;74.22
65707;SHT31;52423;43.512;5.220;2023-05-01T06:05:46;14.60;73.64
65707;SHT31;52423;43.512;5.220;2023-05-01T06:08:12;14.66;73.44
65707;SHT31;52423;43.512;5.220;2023-05-01T06:10:41;14.72;73.62
65707;SHT31;52423;43.512;5.220;2023-05-01T06:13:07;14.69;73.65
65707;SHT31;52423;43.512;5.220;2023-05-01T06:15:33;14.83;72.37
65707;SHT31;52423;43.512;5.220;2023-05-01T06:17:59;14.90;72.74
65707;SHT31;52423;43.512;5.220;2023-05-01T06:20:25;15.03;70.67
65707;SHT31;52423;43.512;5.220;2023-05-01T06:22:50;15.20;70.22
65707;SHT31;52423;43.512;5.220;2023-05-01T06:25:16;15.34;68.71
65707;SHT31;52423;43.512;5.220;2023-05-01T06:27:41;15.44;67.96
65707;SHT31;52423;43.512;5.220;2023-05-01T06:30:07;15.65;67.29
65707;SHT31;52423;43.512;5.220;2023-05-01T06:32:33;15.86;66.62
65707;SHT31;52423;43.512;5.220;2023-05-01T06:34:59;16.00;66.55
65707;SHT31;52423;43.512;5.220;2023-05-01T06:37:24;16.18;64.87
65707;SHT31;52423;43.512;5.220;2023-05-01T06:39:50;16.23;64.35
65707;SHT31;52423;43.512;5.220;2023-05-01T06:42:15;16.37;64.71
65707;SHT31;52423;43.512;5.220;2023-05-01T06:44:43;16.34;65.55
65707;SHT31;52423;43.512;5.220;2023-05-01T06:47:09;16.48;63.66
65707;SHT31;52423;43.512;5.220;2023-05-01T06:49:34;16.55;63.52
65707;SHT31;52423;43.512;5.220;2023-05-01T06:51:59;16.64;62.91
65707;SHT31;52423;43.512;5.220;2023-05-01T06:54:25;16.69;63.45
65707;SHT31;52423;43.512;5.220;2023-05-01T06:56:52;16.79;62.93
65707;SHT31;52423;43.512;5.220;2023-05-01T06:59:17;16.85;62.42
65707;SHT31;52423;43.512;5.220;2023-05-01T07:01:43;16.89;62.34
65707;SHT31;52423;43.512;5.220;2023-05-01T07:04:08;17.02;62.22
65707;SHT31;52423;43.512;5.220;2023-05-01T07:06:33;17.02;61.28
65707;SHT31;52423;43.512;5.220;2023-05-01T07:08:59;17.05;61.69
65707;SHT31;52423;43.512;5.220;2023-05-01T07:11:25;17.19;61.62
65707;SHT31;52423;43.512;5.220;2023-05-01T07:13:51;17.39;62.01
65707;SHT31;52423;43.512;5.220;2023-05-01T07:16:16;17.43;60.21
65707;SHT31;52423;43.512;5.220;2023-05-01T07:18:42;17.54;60.08
65707;SHT31;52423;43.512;5.220;2023-05-01T07:21:07;17.64;60.53
65707;SHT31;52423;43.512;5.220;2023-05-01T07:23:36;17.54;59.60
65707;SHT31;52423;43.512;5.220;2023-05-01T07:26:01;17.63;59.38
65707;SHT31;52423;43.512;5.220;2023-05-01T07:28:26;17.59;59.43
65707;SHT31;52423;43.512;5.220;2023-05-01T07:30:52;17.71;59.29
65707;SHT31;52423;43.512;5.220;2023-05-01T07:33:17;18.00;59.60
65707;SHT31;52423;43.512;5.220;2023-05-01T07:35:42;18.12;58.55
65707;SHT31;52423;43.512;5.220;2023-05-01T07:38:08;18.00;58.22
65707;SHT31;52423;43.512;5.220;2023-05-01T07:40:33;18.06;57.44
65707;SHT31;52423;43.512;5.220;2023-05-01T07:42:59;18.15;58.01
65707;SHT31;52423;43.512;5.220;2023-05-01T07:45:25;18.25;56.96
65707;SHT31;52423;43.512;5.220;2023-05-01T07:47:51;18.24;56.91
65707;SHT31;52423;43.512;5.220;2023-05-01T07:50:16;18.25;56.86
65707;SHT31;52423;43.512;5.220;2023-05-01T07:52:42;18.26;56.91
65707;SHT31;52423;43.512;5.220;2023-05-01T07:55:08;18.39;57.31
65707;SHT31;52423;43.512;5.220;2023-05-01T07:57:34;18.49;56.67
65707;SHT31;52423;43.512;5.220;2023-05-01T08:00:00;18.69;56.57
65707;SHT31;52423;43.512;5.220;2023-05-01T08:02:25;18.82;56.40
65707;SHT31;52423;43.512;5.220;2023-05-01T08:04:51;18.87;55.80
65707;SHT31;52423;43.512;5.220;2023-05-01T08:07:16;18.94;56.05
65707;SHT31;52423;43.512;5.220;2023-05-01T08:09:42;19.13;54.82
65707;SHT31;52423;43.512;5.220;2023-05-01T08:12:07;19.07;56.04
65707;SHT31;52423;43.512;5.220;2023-05-01T08:14:32;19.30;54.73
65707;SHT31;52423;43.512;5.220;2023-05-01T08:16:58;19.20;54.08
65707;SHT31;52423;43.512;5.220;2023-05-01T08:19:24;19.41;54.45
65707;SHT31;52423;43.512;5.220;2023-05-01T08:21:49;19.43;54.11
65707;SHT31;52423;43.512;5.220;2023-05-01T08:24:15;19.48;53.74
65707;SHT31;52423;43.512;5.220;2023-05-01T08:26:40;19.58;54.45
65707;SHT31;52423;43.512;5.220;2023-05-01T08:29:06;19.75;52.33
65707;SHT31;52423;43.512;5.220;2023-05-01T08:31:31;19.39;53.09
65707;SHT31;52423;43.512;5.220;2023-05-01T08:33:57;19.48;53.68
65707;SHT31;52423;43.512;5.220;2023-05-01T08:36:22;19.62;52.97
65707;SHT31;52423;43.512;5.220;2023-05-01T08:38:47;19.48;53.04
65707;SHT31;52423;43.512;5.220;2023-05-01T08:41:20;19.61;52.80
65707;SHT31;52423;43.512;5.220;2023-05-01T08:43:46;19.66;52.28
65707;SHT31;52423;43.512;5.220;2023-05-01T08:46:11;19.51;52.35
65707;SHT31;52423;43.512;5.220;2023-05-01T08:48:40;19.61;52.41
65707;SHT31;52423;43.512;5.220;2023-05-01T08:51:09;19.61;52.95
65707;SHT31;52423;43.512;5.220;2023-05-01T08:53:36;19.93;52.11
65707;SHT31;52423;43.512;5.220;2023-05-01T08:56:05;20.29;52.00
65707;SHT31;52423;43.512;5.220;2023-05-01T08:58:32;20.12;51.49
65707;SHT31;52423;43.512;5.220;2023-05-01T09:01:00;20.12;51.15
65707;SHT31;52423;43.512;5.220;2023-05-01T09:03:30;20.43;51.19
65707;SHT31;52423;43.512;5.220;2023-05-01T09:05:56;20.67;51.45
65707;SHT31;52423;43.512;5.220;2023-05-01T09:08:22;20.37;49.73
65707;SHT31;52423;43.512;5.220;2023-05-01T09:10:48;20.41;50.79
65707;SHT31;52423;43.512;5.220;2023-05-01T09:13:14;20.44;50.62
65707;SHT31;52423;43.512;5.220;2023-05-01T09:15:40;20.50;50.47
65707;SHT31;52423;43.512;5.220;2023-05-01T09:18:07;20.73;49.31
65707;SHT31;52423;43.512;5.220;2023-05-01T09:20:33;20.77;48.94
65707;SHT31;52423;43.512;5.220;2023-05-01T09:23:01;20.68;49.39
65707;SHT31;52423;43.512;5.220;2023-05-01T09:25:27;20.81;49.09
65707;SHT31;52423;43.512;5.220;2023-05-01T09:27:53;21.06;49.27
65707;SHT31;52423;43.512;5.220;2023-05-01T09:30:35;20.95;48.91
65707;SHT31;52423;43.512;5.220;2023-05-01T09:33:09;21.08;48.28
65707;SHT31;52423;43.512;5.220;2023-05-01T09:35:54;20.87;48.10
65707;SHT31;52423;43.512;5.220;2023-05-01T09:38:21;20.95;49.25
65707;SHT31;52423;43.512;5.220;2023-05-01T09:40:47;21.21;48.78
65707;SHT31;52423;43.512;5.220;2023-05-01T09:43:13;21.42;47.53
65707;SHT31;52423;43.512;5.220;2023-05-01T09:45:41;21.36;47.65
65707;SHT31;52423;43.512;5.220;2023-05-01T09:48:10;21.49;46.87
65707;SHT31;52423;43.512;5.220;2023-05-01T09:50:35;21.50;47.84
65707;SHT31;52423;43.512;5.220;2023-05-01T09:53:03;21.67;47.62
65707;SHT31;52423;43.512;5.220;2023-05-01T09:55:30;21.63;47.66
65707;SHT31;52423;43.512;5.220;2023-05-01T09:57:56;21.84;47.29
65707;SHT31;52423;43.512;5.220;2023-05-01T10:00:23;21.77;46.85
65707;SHT31;52423;43.512;5.220;2023-05-01T10:02:49;21.97;47.95
65707;SHT31;52423;43.512;5.220;2023-05-01T10:05:15;21.76;45.68
65707;SHT31;52423;43.512;5.220;2023-05-01T10:08:02;21.63;46.31
65707;SHT31;52423;43.512;5.220;2023-05-01T10:10:29;21.76;45.93
65707;SHT31;52423;43.512;5.220;2023-05-01T10:12:55;21.60;45.93
65707;SHT31;52423;43.512;5.220;2023-05-01T10:15:20;21.62;46.89
65707;SHT31;52423;43.512;5.220;2023-05-01T10:17:48;21.86;47.73
65707;SHT31;52423;43.512;5.220;2023-05-01T10:20:14;22.11;45.28
65707;SHT31;52423;43.512;5.220;2023-05-01T10:22:40;22.27;45.62
65707;SHT31;52423;43.512;5.220;2023-05-01T10:25:12;22.47;45.18
65707;SHT31;52423;43.512;5.220;2023-05-01T10:27:38;22.37;45.35
65707;SHT31;52423;43.512;5.220;2023-05-01T10:30:05;22.20;45.50
65707;SHT31;52423;43.512;5.220;2023-05-01T10:32:32;22.37;45.78
65707;SHT31;52423;43.512;5.220;2023-05-01T10:35:22;22.61;44.64
65707;SHT31;52423;43.512;5.220;2023-05-01T10:38:18;22.44;45.16
65707;SHT31;52423;43.512;5.220;2023-05-01T10:40:45;22.66;44.62
65707;SHT31;52423;43.512;5.220;2023-05-01T10:43:26;22.62;44.19
65707;SHT31;52423;43.512;5.220;2023-05-01T10:51:17;22.54;43.80
65707;SHT31;52423;43.512;5.220;2023-05-01T10:53:45;22.98;44.75
65707;SHT31;52423;43.512;5.220;2023-05-01T10:58:58;23.09;42.68
65707;SHT31;52423;43.512;5.220;2023-05-01T11:04:01;23.03;41.74
65707;SHT31;52423;43.512;5.220;2023-05-01T11:06:28;23.12;42.23
65707;SHT31;52423;43.512;5.220;2023-05-01T11:08:54;23.03;42.99
65707;SHT31;52423;43.512;5.220;2023-05-01T11:13:56;23.23;42.96
65707;SHT31;52423;43.512;5.220;2023-05-01T11:21:47;23.36;43.25
65707;SHT31;52423;43.512;5.220;2023-05-01T11:24:13;23.13;42.20
65707;SHT31;52423;43.512;5.220;2023-05-01T11:26:41;23.13;41.96
65707;SHT31;52423;43.512;5.220;2023-05-01T11:29:08;23.54;42.72
65707;SHT31;52423;43.512;5.220;2023-05-01T11:31:34;23.54;41.19
65707;SHT31;52423;43.512;5.220;2023-05-01T11:34:00;23.64;42.30
65707;SHT31;52423;43.512;5.220;2023-05-01T11:36:26;23.53;41.16
65707;SHT31;52423;43.512;5.220;2023-05-01T11:38:53;23.67;41.44
65707;SHT31;52423;43.512;5.220;2023-05-01T11:41:21;23.53;41.08
65707;SHT31;52423;43.512;5.220;2023-05-01T11:43:48;23.71;41.76
65707;SHT31;52423;43.512;5.220;2023-05-01T11:46:25;23.81;40.71
65707;SHT31;52423;43.512;5.220;2023-05-01T11:48:54;24.08;40.76
65707;SHT31;52423;43.512;5.220;2023-05-01T11:51:24;23.86;40.22
65707;SHT31;52423;43.512;5.220;2023-05-01T11:54:01;23.82;40.73
65707;SHT31;52423;43.512;5.220;2023-05-01T11:56:28;23.60;40.26
65707;SHT31;52423;43.512;5.220;2023-05-01T11:58:58;23.68;40.48
65707;SHT31;52423;43.512;5.220;2023-05-01T12:01:37;23.85;40.48
65707;SHT31;52423;43.512;5.220;2023-05-01T12:04:04;23.91;39.32
65707;SHT31;52423;43.512;5.220;2023-05-01T12:06:43;23.78;39.72
65707;SHT31;52423;43.512;5.220;2023-05-01T12:09:15;23.57;38.45
65707;SHT31;52423;43.512;5.220;2023-05-01T12:11:42;23.54;40.05
65707;SHT31;52423;43.512;5.220;2023-05-01T12:14:08;23.75;39.19
65707;SHT31;52423;43.512;5.220;2023-05-01T12:16:35;23.51;38.53
65707;SHT31;52423;43.512;5.220;2023-05-01T12:19:00;23.34;39.29
65707;SHT31;52423;43.512;5.220;2023-05-01T12:21:27;23.46;39.14
65707;SHT31;52423;43.512;5.220;2023-05-01T12:23:53;23.64;38.12
65707;SHT31;52423;43.512;5.220;2023-05-01T12:26:22;23.50;38.24
65707;SHT31;52423;43.512;5.220;2023-05-01T12:29:07;23.28;38.91
65707;SHT31;52423;43.512;5.220;2023-05-01T12:31:34;23.57;39.46
65707;SHT31;52423;43.512;5.220;2023-05-01T12:34:02;23.61;38.58
65707;SHT31;52423;43.512;5.220;2023-05-01T12:36:30;23.89;38.31
65707;SHT31;52423;43.512;5.220;2023-05-01T12:43:58;23.95;38.02
65707;SHT31;52423;43.512;5.220;2023-05-01T12:46:25;23.71;38.00
65707;SHT31;52423;43.512;5.220;2023-05-01T12:48:51;23.64;38.04
65707;SHT31;52423;43.512;5.220;2023-05-01T12:51:18;23.55;37.40
65707;SHT31;52423;43.512;5.220;2023-05-01T12:53:44;23.63;38.17
65707;SHT31;52423;43.512;5.220;2023-05-01T12:56:20;23.36;36.72
65707;SHT31;52423;43.512;5.220;2023-05-01T12:58:47;23.07;38.02
65707;SHT31;52423;43.512;5.220;2023-05-01T13:01:22;23.27;38.07
65707;SHT31;52423;43.512;5.220;2023-05-01T13:03:49;23.17;37.92
65707;SHT31;52423;43.512;5.220;2023-05-01T13:06:15;23.51;37.30
65707;SHT31;52423;43.512;5.220;2023-05-01T13:08:40;23.58;36.82
65707;SHT31;52423;43.512;5.220;2023-05-01T13:11:16;23.55;37.12
65707;SHT31;52423;43.512;5.220;2023-05-01T13:13:43;23.40;36.99
65707;SHT31;52423;43.512;5.220;2023-05-01T13:16:15;23.17;37.63
65707;SHT31;52423;43.512;5.220;2023-05-01T13:18:45;23.23;36.74
65707;SHT31;52423;43.512;5.220;2023-05-01T13:21:13;23.28;36.78
65707;SHT31;52423;43.512;5.220;2023-05-01T13:23:41;23.47;37.83
65707;SHT31;52423;43.512;5.220;2023-05-01T13:26:07;23.50;36.71
65707;SHT31;52423;43.512;5.220;2023-05-01T13:28:34;22.98;37.34
65707;SHT31;52423;43.512;5.220;2023-05-01T13:30:59;23.03;37.53
65707;SHT31;52423;43.512;5.220;2023-05-01T13:33:27;23.26;38.20
65707;SHT31;52423;43.512;5.220;2023-05-01T13:35:55;23.30;38.56
65707;SHT31;52423;43.512;5.220;2023-05-01T13:38:21;23.53;37.98
65707;SHT31;52423;43.512;5.220;2023-05-01T13:40:48;23.70;36.58
65707;SHT31;52423;43.512;5.220;2023-05-01T13:43:14;23.67;36.35
65707;SHT31;52423;43.512;5.220;2023-05-01T13:45:41;23.63;36.18
65707;SHT31;52423;43.512;5.220;2023-05-01T13:48:07;23.22;35.54
65707;SHT31;52423;43.512;5.220;2023-05-01T13:50:33;23.30;36.27
65707;SHT31;52423;43.512;5.220;2023-05-01T13:52:59;23.51;35.95
65707;SHT31;52423;43.512;5.220;2023-05-01T13:55:24;23.73;36.20
65707;SHT31;52423;43.512;5.220;2023-05-01T13:57:50;23.53;35.02
65707;SHT31;52423;43.512;5.220;2023-05-01T14:00:16;23.39;35.95
65707;SHT31;52423;43.512;5.220;2023-05-01T14:02:44;23.26;35.36
65707;SHT31;52423;43.512;5.220;2023-05-01T14:05:11;23.23;35.29
65707;SHT31;52423;43.512;5.220;2023-05-01T14:07:43;23.31;35.76
65707;SHT31;52423;43.512;5.220;2023-05-01T14:10:10;23.30;35.55
65707;SHT31;52423;43.512;5.220;2023-05-01T14:12:37;23.28;35.66
65707;SHT31;52423;43.512;5.220;2023-05-01T14:15:03;23.37;35.09
65707;SHT31;52423;43.512;5.220;2023-05-01T14:17:33;23.36;33.99
65707;SHT31;52423;43.512;5.220;2023-05-01T14:19:59;23.20;34.48
65707;SHT31;52423;43.512;5.220;2023-05-01T14:22:29;23.23;35.02
65707;SHT31;52423;43.512;5.220;2023-05-01T14:24:54;23.30;34.80
65707;SHT31;52423;43.512;5.220;2023-05-01T14:27:21;23.19;34.41
65707;SHT31;52423;43.512;5.220;2023-05-01T14:29:48;23.10;34.12
65707;SHT31;52423;43.512;5.220;2023-05-01T14:32:14;22.91;34.97
65707;SHT31;52423;43.512;5.220;2023-05-01T14:34:41;23.03;34.46
65707;SHT31;52423;43.512;5.220;2023-05-01T14:37:08;23.12;34.27
65707;SHT31;52423;43.512;5.220;2023-05-01T14:39:34;23.03;34.41
65707;SHT31;52423;43.512;5.220;2023-05-01T14:41:59;23.20;35.50
65707;SHT31;52423;43.512;5.220;2023-05-01T14:44:26;23.10;34.32
65707;SHT31;52423;43.512;5.220;2023-05-01T14:46:55;23.05;34.35
65707;SHT31;52423;43.512;5.220;2023-05-01T14:49:24;23.12;35.10
65707;SHT31;52423;43.512;5.220;2023-05-01T14:51:51;23.09;32.96
65707;SHT31;52423;43.512;5.220;2023-05-01T14:54:18;23.05;32.54
65707;SHT31;52423;43.512;5.220;2023-05-01T14:56:44;23.09;32.38
65707;SHT31;52423;43.512;5.220;2023-05-01T14:59:10;23.02;32.84
65707;SHT31;52423;43.512;5.220;2023-05-01T15:01:36;23.00;33.13
65707;SHT31;52423;43.512;5.220;2023-05-01T15:04:02;23.07;33.30
65707;SHT31;52423;43.512;5.220;2023-05-01T15:06:28;22.96;32.96
65707;SHT31;52423;43.512;5.220;2023-05-01T15:08:54;22.92;34.01
65707;SHT31;52423;43.512;5.220;2023-05-01T15:11:19;23.05;33.71
65707;SHT31;52423;43.512;5.220;2023-05-01T15:13:45;22.92;33.57
65707;SHT31;52423;43.512;5.220;2023-05-01T15:16:13;22.85;32.87
65707;SHT31;52423;43.512;5.220;2023-05-01T15:18:38;22.86;33.23
65707;SHT31;52423;43.512;5.220;2023-05-01T15:21:04;22.81;33.08
65707;SHT31;52423;43.512;5.220;2023-05-01T15:23:29;22.89;33.85
65707;SHT31;52423;43.512;5.220;2023-05-01T15:25:56;22.93;33.51
65707;SHT31;52423;43.512;5.220;2023-05-01T15:28:22;22.83;33.91
65707;SHT31;52423;43.512;5.220;2023-05-01T15:30:50;22.88;33.59
65707;SHT31;52423;43.512;5.220;2023-05-01T15:33:16;22.96;34.45
65707;SHT31;52423;43.512;5.220;2023-05-01T15:35:41;23.07;34.27
65707;SHT31;52423;43.512;5.220;2023-05-01T15:38:07;23.13;34.66
65707;SHT31;52423;43.512;5.220;2023-05-01T15:40:32;23.22;34.17
65707;SHT31;52423;43.512;5.220;2023-05-01T15:42:59;23.12;33.98
65707;SHT31;52423;43.512;5.220;2023-05-01T15:45:25;23.10;34.34
65707;SHT31;52423;43.512;5.220;2023-05-01T15:47:51;22.98;35.04
65707;SHT31;52423;43.512;5.220;2023-05-01T15:50:17;22.88;34.99
65707;SHT31;52423;43.512;5.220;2023-05-01T15:52:42;22.89;35.07
65707;SHT31;52423;43.512;5.220;2023-05-01T15:55:08;22.81;34.75
65707;SHT31;52423;43.512;5.220;2023-05-01T15:57:33;22.86;34.46
65707;SHT31;52423;43.512;5.220;2023-05-01T15:59:59;22.93;33.87
65707;SHT31;52423;43.512;5.220;2023-05-01T16:02:25;22.68;33.51
65707;SHT31;52423;43.512;5.220;2023-05-01T16:04:52;22.71;33.80
65707;SHT31;52423;43.512;5.220;2023-05-01T16:07:18;22.77;34.05
65707;SHT31;52423;43.512;5.220;2023-05-01T16:09:45;22.65;33.50
65707;SHT31;52423;43.512;5.220;2023-05-01T16:12:11;22.55;33.71